sensor_id;sensor_type;location;lat;lon;timestamp;P1;durP1;ratioP1;P2;durP2;ratioP2
34573;SDS011;20809;49.594;8.734;2023-10-19T00:02:14;17.63;;;9.83;;
34573;SDS011;20809;49.594;8.734;2023-10-19T00:05:19;12.80;;;9.02;;
34573;SDS011;20809;49.594;8.734;2023-10-19T00:08:20;12.65;;;9.40;;
34573;SDS011;20809;49.594;8.734;2023-10-19T00:11:21;13.05;;;9.98;;
34573;SDS011;20809;49.594;8.734;2023-10-19T00:14:22;13.45;;;10.40;;
34573;SDS011;20809;49.594;8.734;2023-10-19T00:17:25;15.38;;;11.20;;
34573;SDS011;20809;49.594;8.734;2023-10-19T00:20:28;12.98;;;10.45;;
34573;SDS011;20809;49.594;8.734;2023-10-19T00:23:29;15.27;;;11.00;;
34573;SDS011;20809;49.594;8.734;2023-10-19T00:26:31;18.50;;;12.82;;
34573;SDS011;20809;49.594;8.734;2023-10-19T00:29:32;17.85;;;12.80;;
34573;SDS011;20809;49.594;8.734;2023-10-19T00:32:40;17.55;;;12.63;;
34573;SDS011;20809;49.594;8.734;2023-10-19T00:35:40;19.05;;;12.63;;
34573;SDS011;20809;49.594;8.734;2023-10-19T00:39:00;19.38;;;14.32;;
34573;SDS011;20809;49.594;8.734;2023-10-19T00:42:14;18.85;;;13.27;;
34573;SDS011;20809;49.594;8.734;2023-10-19T00:45:20;17.35;;;12.07;;
34573;SDS011;20809;49.594;8.734;2023-10-19T00:48:27;15.05;;;11.90;;
34573;SDS011;20809;49.594;8.734;2023-10-19T00:51:34;11.02;;;8.90;;
34573;SDS011;20809;49.594;8.734;2023-10-19T00:54:38;9.23;;;7.57;;
34573;SDS011;20809;49.594;8.734;2023-10-19T00:57:59;10.98;;;8.80;;
34573;SDS011;20809;49.594;8.734;2023-10-19T01:01:09;9.87;;;8.53;;
34573;SDS011;20809;49.594;8.734;2023-10-19T01:04:12;11.23;;;8.35;;
34573;SDS011;20809;49.594;8.734;2023-10-19T01:10:28;8.98;;;7.50;;
34573;SDS011;20809;49.594;8.734;2023-10-19T01:13:32;10.98;;;7.82;;
34573;SDS011;20809;49.594;8.734;2023-10-19T01:16:35;8.80;;;7.65;;
34573;SDS011;20809;49.594;8.734;2023-10-19T01:19:37;12.85;;;9.02;;
34573;SDS011;20809;49.594;8.734;2023-10-19T01:22:59;12.13;;;9.15;;
34573;SDS011;20809;49.594;8.734;2023-10-19T01:26:08;11.90;;;8.50;;
34573;SDS011;20809;49.594;8.734;2023-10-19T01:29:11;8.65;;;7.60;;
34573;SDS011;20809;49.594;8.734;2023-10-19T01:32:15;8.52;;;7.43;;
34573;SDS011;20809;49.594;8.734;2023-10-19T01:35:17;9.80;;;7.05;;
34573;SDS011;20809;49.594;8.734;2023-10-19T01:38:19;8.50;;;6.20;;
34573;SDS011;20809;49.594;8.734;2023-10-19T01:41:22;8.60;;;6.75;;
34573;SDS011;20809;49.594;8.734;2023-10-19T01:44:25;11.25;;;6.47;;
34573;SDS011;20809;49.594;8.734;2023-10-19T01:47:27;9.80;;;6.55;;
34573;SDS011;20809;49.594;8.734;2023-10-19T01:50:29;9.82;;;5.72;;
34573;SDS011;20809;49.594;8.734;2023-10-19T01:53:31;8.57;;;5.80;;
34573;SDS011;20809;49.594;8.734;2023-10-19T01:56:39;10.10;;;7.22;;
34573;SDS011;20809;49.594;8.734;2023-10-19T01:59:43;8.95;;;6.20;;
34573;SDS011;20809;49.594;8.734;2023-10-19T02:02:45;10.80;;;6.88;;
34573;SDS011;20809;49.594;8.734;2023-10-19T02:05:48;13.23;;;7.32;;
34573;SDS011;20809;49.594;8.734;2023-10-19T02:09:01;10.95;;;7.78;;
34573;SDS011;20809;49.594;8.734;2023-10-19T02:12:25;12.52;;;7.70;;
34573;SDS011;20809;49.594;8.734;2023-10-19T02:15:27;11.77;;;7.75;;
34573;SDS011;20809;49.594;8.734;2023-10-19T02:18:28;12.50;;;8.48;;
34573;SDS011;20809;49.594;8.734;2023-10-19T02:21:31;12.18;;;7.85;;
34573;SDS011;20809;49.594;8.734;2023-10-19T02:24:40;11.15;;;7.68;;
34573;SDS011;20809;49.594;8.734;2023-10-19T02:27:42;13.90;;;8.27;;
34573;SDS011;20809;49.594;8.734;2023-10-19T02:30:45;10.82;;;7.65;;
34573;SDS011;20809;49.594;8.734;2023-10-19T02:33:47;14.98;;;7.80;;
34573;SDS011;20809;49.594;8.734;2023-10-19T02:36:59;12.75;;;7.78;;
34573;SDS011;20809;49.594;8.734;2023-10-19T02:40:01;14.45;;;9.45;;
34573;SDS011;20809;49.594;8.734;2023-10-19T02:43:12;13.55;;;9.00;;
34573;SDS011;20809;49.594;8.734;2023-10-19T02:46:15;11.00;;;8.13;;
34573;SDS011;20809;49.594;8.734;2023-10-19T02:49:21;12.32;;;8.50;;
34573;SDS011;20809;49.594;8.734;2023-10-19T02:52:23;9.82;;;8.10;;
34573;SDS011;20809;49.594;8.734;2023-10-19T02:55:27;11.88;;;8.35;;
34573;SDS011;20809;49.594;8.734;2023-10-19T02:58:29;12.00;;;9.10;;
34573;SDS011;20809;49.594;8.734;2023-10-19T03:01:32;10.82;;;8.13;;
34573;SDS011;20809;49.594;8.734;2023-10-19T03:04:35;17.55;;;7.68;;
34573;SDS011;20809;49.594;8.734;2023-10-19T03:07:37;14.65;;;8.73;;
34573;SDS011;20809;49.594;8.734;2023-10-19T03:10:39;14.15;;;7.40;;
34573;SDS011;20809;49.594;8.734;2023-10-19T03:13:45;11.68;;;7.18;;
34573;SDS011;20809;49.594;8.734;2023-10-19T03:16:51;10.25;;;7.18;;
34573;SDS011;20809;49.594;8.734;2023-10-19T03:20:15;11.32;;;7.40;;
34573;SDS011;20809;49.594;8.734;2023-10-19T03:23:24;9.85;;;6.90;;
34573;SDS011;20809;49.594;8.734;2023-10-19T03:26:27;11.48;;;6.75;;
34573;SDS011;20809;49.594;8.734;2023-10-19T03:29:37;16.75;;;7.10;;
34573;SDS011;20809;49.594;8.734;2023-10-19T03:32:41;12.95;;;8.05;;
34573;SDS011;20809;49.594;8.734;2023-10-19T03:35:43;7.55;;;6.82;;
34573;SDS011;20809;49.594;8.734;2023-10-19T03:38:49;11.52;;;7.53;;
34573;SDS011;20809;49.594;8.734;2023-10-19T03:41:53;10.98;;;7.55;;
34573;SDS011;20809;49.594;8.734;2023-10-19T03:44:56;11.25;;;7.53;;
34573;SDS011;20809;49.594;8.734;2023-10-19T03:48:00;10.80;;;7.22;;
34573;SDS011;20809;49.594;8.734;2023-10-19T03:51:10;13.85;;;9.90;;
34573;SDS011;20809;49.594;8.734;2023-10-19T03:54:14;8.73;;;6.47;;
34573;SDS011;20809;49.594;8.734;2023-10-19T03:57:22;13.27;;;7.28;;
34573;SDS011;20809;49.594;8.734;2023-10-19T04:00:30;8.32;;;6.15;;
34573;SDS011;20809;49.594;8.734;2023-10-19T04:03:35;9.68;;;7.00;;
34573;SDS011;20809;49.594;8.734;2023-10-19T04:06:39;9.40;;;6.00;;
34573;SDS011;20809;49.594;8.734;2023-10-19T04:09:41;8.18;;;5.80;;
34573;SDS011;20809;49.594;8.734;2023-10-19T04:13:02;7.75;;;6.10;;
34573;SDS011;20809;49.594;8.734;2023-10-19T04:16:05;7.47;;;6.15;;
34573;SDS011;20809;49.594;8.734;2023-10-19T04:19:10;7.72;;;6.53;;
34573;SDS011;20809;49.594;8.734;2023-10-19T04:22:15;8.90;;;5.90;;
34573;SDS011;20809;49.594;8.734;2023-10-19T04:25:31;8.13;;;5.28;;
34573;SDS011;20809;49.594;8.734;2023-10-19T04:28:33;7.80;;;5.28;;
34573;SDS011;20809;49.594;8.734;2023-10-19T04:31:42;9.50;;;5.70;;
34573;SDS011;20809;49.594;8.734;2023-10-19T04:34:57;8.25;;;5.15;;
34573;SDS011;20809;49.594;8.734;2023-10-19T04:37:59;5.93;;;4.75;;
34573;SDS011;20809;49.594;8.734;2023-10-19T04:41:05;8.70;;;5.43;;
34573;SDS011;20809;49.594;8.734;2023-10-19T04:44:11;10.77;;;5.63;;
34573;SDS011;20809;49.594;8.734;2023-10-19T04:47:13;9.77;;;5.13;;
34573;SDS011;20809;49.594;8.734;2023-10-19T04:50:16;8.60;;;5.35;;
34573;SDS011;20809;49.594;8.734;2023-10-19T04:53:18;9.50;;;5.90;;
34573;SDS011;20809;49.594;8.734;2023-10-19T04:56:23;13.45;;;7.40;;
34573;SDS011;20809;49.594;8.734;2023-10-19T04:59:26;7.93;;;5.93;;
34573;SDS011;20809;49.594;8.734;2023-10-19T05:02:28;9.65;;;6.25;;
34573;SDS011;20809;49.594;8.734;2023-10-19T05:05:30;9.93;;;7.75;;
34573;SDS011;20809;49.594;8.734;2023-10-19T05:08:36;14.90;;;6.72;;
34573;SDS011;20809;49.594;8.734;2023-10-19T05:11:39;8.93;;;6.72;;
34573;SDS011;20809;49.594;8.734;2023-10-19T05:14:41;13.57;;;8.32;;
34573;SDS011;20809;49.594;8.734;2023-10-19T05:17:44;8.90;;;6.78;;
34573;SDS011;20809;49.594;8.734;2023-10-19T05:20:46;11.77;;;6.82;;
34573;SDS011;20809;49.594;8.734;2023-10-19T05:23:48;7.22;;;5.90;;
34573;SDS011;20809;49.594;8.734;2023-10-19T05:26:51;8.30;;;5.65;;
34573;SDS011;20809;49.594;8.734;2023-10-19T05:29:54;9.38;;;5.80;;
34573;SDS011;20809;49.594;8.734;2023-10-19T05:32:57;9.10;;;6.18;;
34573;SDS011;20809;49.594;8.734;2023-10-19T05:36:02;9.52;;;6.05;;
34573;SDS011;20809;49.594;8.734;2023-10-19T05:39:03;10.43;;;5.20;;
34573;SDS011;20809;49.594;8.734;2023-10-19T05:42:07;8.13;;;5.82;;
34573;SDS011;20809;49.594;8.734;2023-10-19T05:45:09;9.38;;;6.10;;
34573;SDS011;20809;49.594;8.734;2023-10-19T05:48:13;7.60;;;4.85;;
34573;SDS011;20809;49.594;8.734;2023-10-19T05:51:15;9.88;;;5.95;;
34573;SDS011;20809;49.594;8.734;2023-10-19T05:54:17;10.82;;;6.50;;
34573;SDS011;20809;49.594;8.734;2023-10-19T05:57:18;7.72;;;6.15;;
34573;SDS011;20809;49.594;8.734;2023-10-19T06:00:19;21.40;;;10.75;;
34573;SDS011;20809;49.594;8.734;2023-10-19T06:03:21;21.58;;;13.80;;
34573;SDS011;20809;49.594;8.734;2023-10-19T06:06:21;25.45;;;13.43;;
34573;SDS011;20809;49.594;8.734;2023-10-19T06:09:22;16.45;;;10.90;;
34573;SDS011;20809;49.594;8.734;2023-10-19T06:12:29;17.40;;;9.18;;
34573;SDS011;20809;49.594;8.734;2023-10-19T06:15:33;13.30;;;9.00;;
34573;SDS011;20809;49.594;8.734;2023-10-19T06:18:33;13.95;;;9.18;;
34573;SDS011;20809;49.594;8.734;2023-10-19T06:21:34;10.50;;;8.20;;
34573;SDS011;20809;49.594;8.734;2023-10-19T06:24:35;13.05;;;8.32;;
34573;SDS011;20809;49.594;8.734;2023-10-19T06:27:37;10.43;;;7.22;;
34573;SDS011;20809;49.594;8.734;2023-10-19T06:30:38;8.48;;;6.70;;
34573;SDS011;20809;49.594;8.734;2023-10-19T06:33:40;9.63;;;6.68;;
34573;SDS011;20809;49.594;8.734;2023-10-19T06:36:41;8.20;;;6.50;;
34573;SDS011;20809;49.594;8.734;2023-10-19T06:39:41;6.27;;;5.23;;
34573;SDS011;20809;49.594;8.734;2023-10-19T06:42:45;6.70;;;6.00;;
34573;SDS011;20809;49.594;8.734;2023-10-19T06:45:46;11.63;;;6.15;;
34573;SDS011;20809;49.594;8.734;2023-10-19T06:48:47;7.07;;;4.73;;
34573;SDS011;20809;49.594;8.734;2023-10-19T06:51:47;9.05;;;5.75;;
34573;SDS011;20809;49.594;8.734;2023-10-19T06:54:48;6.73;;;5.27;;
34573;SDS011;20809;49.594;8.734;2023-10-19T06:57:52;6.37;;;5.23;;
34573;SDS011;20809;49.594;8.734;2023-10-19T07:00:53;9.57;;;5.97;;
34573;SDS011;20809;49.594;8.734;2023-10-19T07:03:59;7.35;;;5.45;;
34573;SDS011;20809;49.594;8.734;2023-10-19T07:07:00;13.82;;;6.82;;
34573;SDS011;20809;49.594;8.734;2023-10-19T07:10:00;7.65;;;4.47;;
34573;SDS011;20809;49.594;8.734;2023-10-19T07:13:06;4.65;;;4.18;;
34573;SDS011;20809;49.594;8.734;2023-10-19T07:16:10;5.35;;;4.70;;
34573;SDS011;20809;49.594;8.734;2023-10-19T07:19:11;5.47;;;4.05;;
34573;SDS011;20809;49.594;8.734;2023-10-19T07:22:13;5.97;;;4.20;;
34573;SDS011;20809;49.594;8.734;2023-10-19T07:25:15;6.03;;;4.05;;
34573;SDS011;20809;49.594;8.734;2023-10-19T07:28:17;5.03;;;3.53;;
34573;SDS011;20809;49.594;8.734;2023-10-19T07:31:17;5.25;;;3.78;;
34573;SDS011;20809;49.594;8.734;2023-10-19T07:34:18;4.68;;;4.00;;
34573;SDS011;20809;49.594;8.734;2023-10-19T07:37:18;7.57;;;4.30;;
34573;SDS011;20809;49.594;8.734;2023-10-19T07:40:21;7.28;;;4.45;;
34573;SDS011;20809;49.594;8.734;2023-10-19T07:43:23;3.75;;;3.03;;
34573;SDS011;20809;49.594;8.734;2023-10-19T07:46:25;3.67;;;2.63;;
34573;SDS011;20809;49.594;8.734;2023-10-19T07:49:25;4.82;;;3.45;;
34573;SDS011;20809;49.594;8.734;2023-10-19T07:52:26;2.90;;;2.58;;
34573;SDS011;20809;49.594;8.734;2023-10-19T07:55:27;4.13;;;2.55;;
34573;SDS011;20809;49.594;8.734;2023-10-19T07:58:28;3.15;;;2.30;;
34573;SDS011;20809;49.594;8.734;2023-10-19T08:01:30;4.25;;;2.40;;
34573;SDS011;20809;49.594;8.734;2023-10-19T08:04:31;3.55;;;2.53;;
34573;SDS011;20809;49.594;8.734;2023-10-19T08:07:32;2.60;;;2.08;;
34573;SDS011;20809;49.594;8.734;2023-10-19T08:10:34;6.07;;;2.70;;
34573;SDS011;20809;49.594;8.734;2023-10-19T08:13:35;3.08;;;2.50;;
34573;SDS011;20809;49.594;8.734;2023-10-19T08:16:35;2.72;;;2.50;;
34573;SDS011;20809;49.594;8.734;2023-10-19T08:19:36;3.15;;;2.63;;
34573;SDS011;20809;49.594;8.734;2023-10-19T08:22:36;4.32;;;3.15;;
34573;SDS011;20809;49.594;8.734;2023-10-19T08:25:37;4.68;;;2.90;;
34573;SDS011;20809;49.594;8.734;2023-10-19T08:28:39;2.88;;;2.67;;
34573;SDS011;20809;49.594;8.734;2023-10-19T08:31:40;6.32;;;3.03;;
34573;SDS011;20809;49.594;8.734;2023-10-19T08:34:41;2.75;;;2.25;;
34573;SDS011;20809;49.594;8.734;2023-10-19T08:37:42;2.22;;;2.03;;
34573;SDS011;20809;49.594;8.734;2023-10-19T08:40:44;3.88;;;1.95;;
34573;SDS011;20809;49.594;8.734;2023-10-19T08:43:45;4.30;;;2.20;;
34573;SDS011;20809;49.594;8.734;2023-10-19T08:46:46;6.13;;;1.83;;
34573;SDS011;20809;49.594;8.734;2023-10-19T08:49:47;3.47;;;2.78;;
34573;SDS011;20809;49.594;8.734;2023-10-19T08:52:48;5.57;;;2.13;;
34573;SDS011;20809;49.594;8.734;2023-10-19T08:55:50;2.40;;;1.50;;
34573;SDS011;20809;49.594;8.734;2023-10-19T08:58:54;3.80;;;1.52;;
34573;SDS011;20809;49.594;8.734;2023-10-19T09:02:01;4.00;;;2.08;;
34573;SDS011;20809;49.594;8.734;2023-10-19T09:05:06;4.93;;;1.75;;
34573;SDS011;20809;49.594;8.734;2023-10-19T09:08:07;2.58;;;1.48;;
34573;SDS011;20809;49.594;8.734;2023-10-19T09:11:10;5.95;;;1.70;;
34573;SDS011;20809;49.594;8.734;2023-10-19T09:14:14;2.67;;;1.17;;
34573;SDS011;20809;49.594;8.734;2023-10-19T09:17:27;3.20;;;1.40;;
34573;SDS011;20809;49.594;8.734;2023-10-19T09:20:32;3.10;;;1.27;;
34573;SDS011;20809;49.594;8.734;2023-10-19T09:23:32;6.60;;;2.20;;
34573;SDS011;20809;49.594;8.734;2023-10-19T09:26:34;2.17;;;1.58;;
34573;SDS011;20809;49.594;8.734;2023-10-19T09:29:37;3.72;;;1.45;;
34573;SDS011;20809;49.594;8.734;2023-10-19T09:32:37;8.32;;;1.88;;
34573;SDS011;20809;49.594;8.734;2023-10-19T09:35:40;6.32;;;2.13;;
34573;SDS011;20809;49.594;8.734;2023-10-19T09:38:46;3.83;;;1.50;;
34573;SDS011;20809;49.594;8.734;2023-10-19T09:41:51;3.65;;;2.08;;
34573;SDS011;20809;49.594;8.734;2023-10-19T09:44:54;2.78;;;1.30;;
34573;SDS011;20809;49.594;8.734;2023-10-19T09:48:05;2.80;;;1.75;;
34573;SDS011;20809;49.594;8.734;2023-10-19T09:51:08;5.20;;;1.92;;
34573;SDS011;20809;49.594;8.734;2023-10-19T09:54:14;2.38;;;1.45;;
34573;SDS011;20809;49.594;8.734;2023-10-19T09:57:23;1.75;;;1.40;;
34573;SDS011;20809;49.594;8.734;2023-10-19T10:00:34;2.38;;;1.30;;
34573;SDS011;20809;49.594;8.734;2023-10-19T10:03:50;2.45;;;1.70;;
34573;SDS011;20809;49.594;8.734;2023-10-19T10:09:55;1.35;;;1.25;;
34573;SDS011;20809;49.594;8.734;2023-10-19T10:13:03;2.03;;;1.52;;
34573;SDS011;20809;49.594;8.734;2023-10-19T10:16:33;4.53;;;1.52;;
34573;SDS011;20809;49.594;8.734;2023-10-19T10:19:34;2.17;;;1.48;;
34573;SDS011;20809;49.594;8.734;2023-10-19T10:22:34;3.65;;;1.45;;
34573;SDS011;20809;49.594;8.734;2023-10-19T10:25:35;2.00;;;1.77;;
34573;SDS011;20809;49.594;8.734;2023-10-19T10:28:36;3.75;;;2.42;;
34573;SDS011;20809;49.594;8.734;2023-10-19T10:31:43;3.50;;;1.65;;
34573;SDS011;20809;49.594;8.734;2023-10-19T10:34:44;3.45;;;1.90;;
34573;SDS011;20809;49.594;8.734;2023-10-19T10:37:53;3.90;;;2.15;;
34573;SDS011;20809;49.594;8.734;2023-10-19T10:40:54;2.28;;;1.30;;
34573;SDS011;20809;49.594;8.734;2023-10-19T10:43:56;2.17;;;1.42;;
34573;SDS011;20809;49.594;8.734;2023-10-19T10:46:58;3.00;;;1.50;;
34573;SDS011;20809;49.594;8.734;2023-10-19T10:49:59;3.33;;;2.10;;
34573;SDS011;20809;49.594;8.734;2023-10-19T10:53:00;2.28;;;1.67;;
34573;SDS011;20809;49.594;8.734;2023-10-19T10:56:01;2.65;;;1.30;;
34573;SDS011;20809;49.594;8.734;2023-10-19T10:59:11;3.90;;;1.65;;
34573;SDS011;20809;49.594;8.734;2023-10-19T11:02:18;2.03;;;1.67;;
34573;SDS011;20809;49.594;8.734;2023-10-19T11:05:21;2.65;;;1.70;;
34573;SDS011;20809;49.594;8.734;2023-10-19T11:08:25;2.95;;;1.45;;
34573;SDS011;20809;49.594;8.734;2023-10-19T11:11:26;2.95;;;1.40;;
34573;SDS011;20809;49.594;8.734;2023-10-19T11:14:27;3.97;;;1.80;;
34573;SDS011;20809;49.594;8.734;2023-10-19T11:17:30;5.20;;;2.15;;
34573;SDS011;20809;49.594;8.734;2023-10-19T11:20:31;3.05;;;1.60;;
34573;SDS011;20809;49.594;8.734;2023-10-19T11:23:35;2.95;;;1.40;;
34573;SDS011;20809;49.594;8.734;2023-10-19T11:26:39;1.58;;;1.48;;
34573;SDS011;20809;49.594;8.734;2023-10-19T11:29:53;4.90;;;2.13;;
34573;SDS011;20809;49.594;8.734;2023-10-19T11:33:07;3.97;;;1.55;;
34573;SDS011;20809;49.594;8.734;2023-10-19T11:39:12;3.63;;;1.38;;
34573;SDS011;20809;49.594;8.734;2023-10-19T11:42:12;1.92;;;1.38;;
34573;SDS011;20809;49.594;8.734;2023-10-19T11:45:13;2.03;;;1.60;;
34573;SDS011;20809;49.594;8.734;2023-10-19T11:48:14;2.80;;;1.50;;
34573;SDS011;20809;49.594;8.734;2023-10-19T11:51:16;1.67;;;1.23;;
34573;SDS011;20809;49.594;8.734;2023-10-19T11:54:17;3.38;;;1.63;;
34573;SDS011;20809;49.594;8.734;2023-10-19T11:57:18;2.45;;;1.90;;
34573;SDS011;20809;49.594;8.734;2023-10-19T12:00:21;2.00;;;1.80;;
34573;SDS011;20809;49.594;8.734;2023-10-19T12:03:36;3.30;;;2.00;;
34573;SDS011;20809;49.594;8.734;2023-10-19T12:06:41;3.03;;;1.85;;
34573;SDS011;20809;49.594;8.734;2023-10-19T12:09:41;4.97;;;2.22;;
34573;SDS011;20809;49.594;8.734;2023-10-19T12:12:42;2.40;;;1.55;;
34573;SDS011;20809;49.594;8.734;2023-10-19T12:15:42;1.90;;;1.60;;
34573;SDS011;20809;49.594;8.734;2023-10-19T12:18:51;2.28;;;1.33;;
34573;SDS011;20809;49.594;8.734;2023-10-19T12:21:52;3.75;;;1.75;;
34573;SDS011;20809;49.594;8.734;2023-10-19T12:24:54;3.47;;;1.88;;
34573;SDS011;20809;49.594;8.734;2023-10-19T12:27:57;3.42;;;1.65;;
34573;SDS011;20809;49.594;8.734;2023-10-19T12:30:58;1.77;;;1.33;;
34573;SDS011;20809;49.594;8.734;2023-10-19T12:33:59;3.55;;;1.60;;
34573;SDS011;20809;49.594;8.734;2023-10-19T12:36:59;1.85;;;1.23;;
34573;SDS011;20809;49.594;8.734;2023-10-19T12:40:02;2.05;;;1.55;;
34573;SDS011;20809;49.594;8.734;2023-10-19T12:43:23;2.42;;;1.48;;
34573;SDS011;20809;49.594;8.734;2023-10-19T12:46:24;2.40;;;1.25;;
34573;SDS011;20809;49.594;8.734;2023-10-19T12:49:25;1.50;;;1.40;;
34573;SDS011;20809;49.594;8.734;2023-10-19T12:52:26;3.38;;;1.95;;
34573;SDS011;20809;49.594;8.734;2023-10-19T12:55:26;3.50;;;1.98;;
34573;SDS011;20809;49.594;8.734;2023-10-19T12:58:27;2.63;;;2.40;;
34573;SDS011;20809;49.594;8.734;2023-10-19T13:01:29;3.22;;;1.63;;
34573;SDS011;20809;49.594;8.734;2023-10-19T13:04:34;2.25;;;1.77;;
34573;SDS011;20809;49.594;8.734;2023-10-19T13:07:35;3.83;;;2.08;;
34573;SDS011;20809;49.594;8.734;2023-10-19T13:10:38;2.63;;;1.70;;
34573;SDS011;20809;49.594;8.734;2023-10-19T13:13:45;4.07;;;2.20;;
34573;SDS011;20809;49.594;8.734;2023-10-19T13:16:46;3.55;;;2.40;;
34573;SDS011;20809;49.594;8.734;2023-10-19T13:19:50;6.38;;;2.35;;
34573;SDS011;20809;49.594;8.734;2023-10-19T13:22:56;4.15;;;2.42;;
34573;SDS011;20809;49.594;8.734;2023-10-19T13:25:57;7.13;;;4.57;;
34573;SDS011;20809;49.594;8.734;2023-10-19T13:29:01;4.78;;;3.67;;
34573;SDS011;20809;49.594;8.734;2023-10-19T13:32:02;11.10;;;4.65;;
34573;SDS011;20809;49.594;8.734;2023-10-19T13:35:03;4.75;;;4.25;;
34573;SDS011;20809;49.594;8.734;2023-10-19T13:38:05;5.50;;;4.57;;
34573;SDS011;20809;49.594;8.734;2023-10-19T13:41:07;4.70;;;4.30;;
34573;SDS011;20809;49.594;8.734;2023-10-19T13:44:09;4.85;;;4.45;;
34573;SDS011;20809;49.594;8.734;2023-10-19T13:47:11;8.73;;;4.93;;
34573;SDS011;20809;49.594;8.734;2023-10-19T13:50:12;8.93;;;5.70;;
34573;SDS011;20809;49.594;8.734;2023-10-19T13:53:13;4.78;;;4.38;;
34573;SDS011;20809;49.594;8.734;2023-10-19T13:56:16;5.22;;;4.68;;
34573;SDS011;20809;49.594;8.734;2023-10-19T13:59:16;6.20;;;5.10;;
34573;SDS011;20809;49.594;8.734;2023-10-19T14:02:17;4.82;;;4.28;;
34573;SDS011;20809;49.594;8.734;2023-10-19T14:05:19;5.38;;;4.18;;
34573;SDS011;20809;49.594;8.734;2023-10-19T14:08:20;4.80;;;4.03;;
34573;SDS011;20809;49.594;8.734;2023-10-19T14:11:21;4.90;;;4.07;;
34573;SDS011;20809;49.594;8.734;2023-10-19T14:14:23;4.22;;;3.85;;
34573;SDS011;20809;49.594;8.734;2023-10-19T14:17:23;4.90;;;4.50;;
34573;SDS011;20809;49.594;8.734;2023-10-19T14:20:25;4.90;;;4.40;;
34573;SDS011;20809;49.594;8.734;2023-10-19T14:23:28;5.93;;;4.60;;
34573;SDS011;20809;49.594;8.734;2023-10-19T14:26:28;8.73;;;4.50;;
34573;SDS011;20809;49.594;8.734;2023-10-19T14:29:29;5.20;;;4.35;;
34573;SDS011;20809;49.594;8.734;2023-10-19T14:32:29;4.18;;;3.75;;
34573;SDS011;20809;49.594;8.734;2023-10-19T14:35:30;5.22;;;3.75;;
34573;SDS011;20809;49.594;8.734;2023-10-19T14:38:32;4.95;;;4.47;;
34573;SDS011;20809;49.594;8.734;2023-10-19T14:41:33;8.32;;;5.13;;
34573;SDS011;20809;49.594;8.734;2023-10-19T14:44:34;7.57;;;6.13;;
34573;SDS011;20809;49.594;8.734;2023-10-19T14:47:37;8.90;;;7.25;;
34573;SDS011;20809;49.594;8.734;2023-10-19T14:50:40;11.57;;;7.70;;
34573;SDS011;20809;49.594;8.734;2023-10-19T14:53:43;11.77;;;8.27;;
34573;SDS011;20809;49.594;8.734;2023-10-19T14:56:43;10.93;;;7.78;;
34573;SDS011;20809;49.594;8.734;2023-10-19T14:59:44;9.32;;;6.72;;
34573;SDS011;20809;49.594;8.734;2023-10-19T15:02:45;6.57;;;5.93;;
34573;SDS011;20809;49.594;8.734;2023-10-19T15:05:49;5.50;;;4.63;;
34573;SDS011;20809;49.594;8.734;2023-10-19T15:08:51;5.50;;;3.63;;
34573;SDS011;20809;49.594;8.734;2023-10-19T15:11:52;5.18;;;3.47;;
34573;SDS011;20809;49.594;8.734;2023-10-19T15:14:54;4.57;;;3.03;;
34573;SDS011;20809;49.594;8.734;2023-10-19T15:17:54;4.68;;;2.55;;
34573;SDS011;20809;49.594;8.734;2023-10-19T15:20:56;6.53;;;2.40;;
34573;SDS011;20809;49.594;8.734;2023-10-19T15:23:56;2.08;;;1.83;;
34573;SDS011;20809;49.594;8.734;2023-10-19T15:26:57;3.08;;;2.55;;
34573;SDS011;20809;49.594;8.734;2023-10-19T15:29:58;3.95;;;2.92;;
34573;SDS011;20809;49.594;8.734;2023-10-19T15:32:58;5.80;;;3.78;;
34573;SDS011;20809;49.594;8.734;2023-10-19T15:35:59;3.27;;;2.97;;
34573;SDS011;20809;49.594;8.734;2023-10-19T15:39:00;3.75;;;2.83;;
34573;SDS011;20809;49.594;8.734;2023-10-19T15:42:01;4.05;;;3.17;;
34573;SDS011;20809;49.594;8.734;2023-10-19T15:45:02;3.08;;;2.80;;
34573;SDS011;20809;49.594;8.734;2023-10-19T15:48:03;4.35;;;2.60;;
34573;SDS011;20809;49.594;8.734;2023-10-19T15:51:04;3.67;;;2.75;;
34573;SDS011;20809;49.594;8.734;2023-10-19T15:54:08;3.92;;;2.00;;
34573;SDS011;20809;49.594;8.734;2023-10-19T15:57:09;2.40;;;1.85;;
34573;SDS011;20809;49.594;8.734;2023-10-19T16:00:11;2.20;;;2.00;;
34573;SDS011;20809;49.594;8.734;2023-10-19T16:03:14;4.80;;;3.30;;
34573;SDS011;20809;49.594;8.734;2023-10-19T16:06:15;4.35;;;3.05;;
34573;SDS011;20809;49.594;8.734;2023-10-19T16:09:16;5.40;;;2.42;;
34573;SDS011;20809;49.594;8.734;2023-10-19T16:12:19;7.20;;;3.13;;
34573;SDS011;20809;49.594;8.734;2023-10-19T16:15:20;5.82;;;4.03;;
34573;SDS011;20809;49.594;8.734;2023-10-19T16:21:23;4.97;;;2.80;;
34573;SDS011;20809;49.594;8.734;2023-10-19T16:24:26;6.43;;;5.07;;
34573;SDS011;20809;49.594;8.734;2023-10-19T16:27:29;7.43;;;5.63;;
34573;SDS011;20809;49.594;8.734;2023-10-19T16:30:32;7.10;;;5.00;;
34573;SDS011;20809;49.594;8.734;2023-10-19T16:33:35;6.47;;;5.05;;
34573;SDS011;20809;49.594;8.734;2023-10-19T16:36:37;6.53;;;5.30;;
34573;SDS011;20809;49.594;8.734;2023-10-19T16:39:40;5.57;;;5.07;;
34573;SDS011;20809;49.594;8.734;2023-10-19T16:45:42;5.57;;;5.07;;
34573;SDS011;20809;49.594;8.734;2023-10-19T16:48:42;9.25;;;7.10;;
34573;SDS011;20809;49.594;8.734;2023-10-19T16:51:44;7.38;;;5.82;;
34573;SDS011;20809;49.594;8.734;2023-10-19T16:54:46;5.80;;;3.67;;
34573;SDS011;20809;49.594;8.734;2023-10-19T16:57:46;4.38;;;3.58;;
34573;SDS011;20809;49.594;8.734;2023-10-19T17:00:47;3.75;;;3.10;;
34573;SDS011;20809;49.594;8.734;2023-10-19T17:03:48;4.05;;;3.72;;
34573;SDS011;20809;49.594;8.734;2023-10-19T17:06:49;3.67;;;3.33;;
34573;SDS011;20809;49.594;8.734;2023-10-19T17:09:50;4.47;;;3.60;;
34573;SDS011;20809;49.594;8.734;2023-10-19T17:12:50;5.87;;;3.50;;
34573;SDS011;20809;49.594;8.734;2023-10-19T17:15:51;4.90;;;3.17;;
34573;SDS011;20809;49.594;8.734;2023-10-19T17:18:52;4.18;;;3.78;;
34573;SDS011;20809;49.594;8.734;2023-10-19T17:21:53;5.90;;;4.07;;
34573;SDS011;20809;49.594;8.734;2023-10-19T17:24:53;6.22;;;4.80;;
34573;SDS011;20809;49.594;8.734;2023-10-19T17:27:54;6.03;;;4.97;;
34573;SDS011;20809;49.594;8.734;2023-10-19T17:30:56;6.07;;;5.10;;
34573;SDS011;20809;49.594;8.734;2023-10-19T17:33:56;6.22;;;4.93;;
34573;SDS011;20809;49.594;8.734;2023-10-19T17:36:57;5.90;;;5.30;;
34573;SDS011;20809;49.594;8.734;2023-10-19T17:39:58;7.65;;;5.20;;
34573;SDS011;20809;49.594;8.734;2023-10-19T17:42:59;7.00;;;5.75;;
34573;SDS011;20809;49.594;8.734;2023-10-19T17:45:59;11.90;;;7.27;;
34573;SDS011;20809;49.594;8.734;2023-10-19T17:49:00;9.38;;;8.40;;
34573;SDS011;20809;49.594;8.734;2023-10-19T17:52:01;8.10;;;7.07;;
34573;SDS011;20809;49.594;8.734;2023-10-19T17:55:02;6.93;;;6.32;;
34573;SDS011;20809;49.594;8.734;2023-10-19T17:58:03;10.82;;;6.40;;
34573;SDS011;20809;49.594;8.734;2023-10-19T18:01:04;7.55;;;6.85;;
34573;SDS011;20809;49.594;8.734;2023-10-19T18:04:09;8.60;;;7.82;;
34573;SDS011;20809;49.594;8.734;2023-10-19T18:07:10;8.98;;;8.18;;
34573;SDS011;20809;49.594;8.734;2023-10-19T18:10:11;8.45;;;7.13;;
34573;SDS011;20809;49.594;8.734;2023-10-19T18:13:15;6.38;;;5.63;;
34573;SDS011;20809;49.594;8.734;2023-10-19T18:16:16;6.22;;;5.60;;
34573;SDS011;20809;49.594;8.734;2023-10-19T18:19:17;5.70;;;4.10;;
34573;SDS011;20809;49.594;8.734;2023-10-19T18:22:18;4.35;;;3.30;;
34573;SDS011;20809;49.594;8.734;2023-10-19T18:25:19;6.53;;;4.20;;
34573;SDS011;20809;49.594;8.734;2023-10-19T18:28:23;5.60;;;5.05;;
34573;SDS011;20809;49.594;8.734;2023-10-19T18:31:24;4.22;;;3.22;;
34573;SDS011;20809;49.594;8.734;2023-10-19T18:34:25;6.80;;;5.78;;